Time;durP1;ratioP1;P1;durP2;ratioP2;P2;SDS_P1;SDS_P2;PMS_P1;PMS_P2;Temp;Humidity;BMP_temperature;BMP_pressure;BME280_temperature;BME280_humidity;BME280_pressure;Samples;Min_cycle;Max_cycle;Signal;HPM_P1;HPM_P2
2021/12/28 00:00:15;;;;;;;;;;;5.20;99.90;;;;;;5091551;28;19908;-74
2021/12/28 00:02:43;;;;;;;;;;;5.10;99.90;;;;;;5091269;28;19908;-75
2021/12/28 00:05:09;;;;;;;;;;;4.90;99.90;;;;;;5072989;28;19908;-75
2021/12/28 00:07:36;;;;;;;;;;;5.00;99.90;;;;;;5072718;28;20364;-75
2021/12/28 00:10:03;;;;;;;;;;;5.20;99.90;;;;;;5090896;28;20025;-75
2021/12/28 00:12:31;;;;;;;;;;;5.30;99.90;;;;;;5091078;28;19926;-75
2021/12/28 00:15:18;;;;;;;;;;;5.40;99.90;;;;;;5090948;28;19969;-75
2021/12/28 00:17:59;;;;;;;;;;;5.40;99.90;;;;;;5090991;28;19939;-75
2021/12/28 00:20:28;;;;;;;;;;;5.30;99.90;;;;;;5091169;28;19915;-75
2021/12/28 00:22:53;;;;;;;;;;;5.10;99.90;;;;;;5090840;28;19939;-74
2021/12/28 00:25:19;;;;;;;;;;;5.20;99.90;;;;;;5090877;28;19966;-74
2021/12/28 00:27:44;;;;;;;;;;;5.20;99.90;;;;;;5091019;28;19908;-74
2021/12/28 00:30:10;;;;;;;;;;;5.40;99.90;;;;;;5091054;28;19923;-74
2021/12/28 00:32:36;;;;;;;;;;;5.50;99.90;;;;;;5090630;28;19919;-74
2021/12/28 00:35:02;;;;;;;;;;;5.40;99.90;;;;;;5090511;28;20288;-74
2021/12/28 00:37:27;;;;;;;;;;;5.20;99.90;;;;;;5086498;28;19919;-74
2021/12/28 00:39:53;;;;;;;;;;;4.90;99.90;;;;;;5090531;28;19958;-74
2021/12/28 00:42:18;;;;;;;;;;;4.80;99.90;;;;;;5090799;28;19915;-74
2021/12/28 00:44:44;;;;;;;;;;;4.70;99.90;;;;;;5090470;28;20364;-74
2021/12/28 00:47:09;;;;;;;;;;;4.80;99.90;;;;;;5090710;28;19914;-75
2021/12/28 00:49:35;;;;;;;;;;;4.90;99.90;;;;;;5090877;28;20391;-74
2021/12/28 00:52:00;;;;;;;;;;;5.10;99.90;;;;;;5090642;28;19915;-74
2021/12/28 00:54:26;;;;;;;;;;;5.20;99.90;;;;;;5090326;28;19931;-75
2021/12/28 00:56:51;;;;;;;;;;;5.20;99.90;;;;;;5090771;28;19961;-74
2021/12/28 00:59:17;;;;;;;;;;;5.10;99.90;;;;;;5090752;28;19912;-75
2021/12/28 01:01:42;;;;;;;;;;;5.10;99.90;;;;;;5090790;28;20383;-74
2021/12/28 01:04:08;;;;;;;;;;;4.90;99.90;;;;;;5090128;28;20363;-75
2021/12/28 01:06:33;;;;;;;;;;;4.80;99.90;;;;;;5090471;28;19908;-74
2021/12/28 01:08:59;;;;;;;;;;;4.90;99.90;;;;;;5090237;28;19929;-75
2021/12/28 01:11:24;;;;;;;;;;;5.00;99.90;;;;;;5090678;28;19908;-74
2021/12/28 01:13:50;;;;;;;;;;;5.00;99.90;;;;;;5071764;28;19912;-75
2021/12/28 01:16:18;;;;;;;;;;;4.90;99.90;;;;;;5089863;28;20141;-75
2021/12/28 01:18:44;;;;;;;;;;;4.80;99.90;;;;;;5090421;28;19912;-75
2021/12/28 01:21:09;;;;;;;;;;;4.50;99.90;;;;;;5090638;28;20254;-75
2021/12/28 01:23:35;;;;;;;;;;;4.20;99.90;;;;;;5074076;28;19912;-74
2021/12/28 01:26:01;;;;;;;;;;;4.00;99.90;;;;;;5094194;28;19915;-75
2021/12/28 01:28:26;;;;;;;;;;;3.90;99.90;;;;;;5094074;28;19908;-74
2021/12/28 01:30:52;;;;;;;;;;;3.90;99.90;;;;;;5094140;28;19912;-74
2021/12/28 01:33:17;;;;;;;;;;;3.90;99.90;;;;;;5093327;28;19912;-74
2021/12/28 01:35:43;;;;;;;;;;;4.00;99.90;;;;;;5090272;28;20300;-74
2021/12/28 01:38:08;;;;;;;;;;;3.90;99.90;;;;;;5093578;28;20011;-74
2021/12/28 01:40:37;;;;;;;;;;;3.90;99.90;;;;;;5094130;28;19916;-74
2021/12/28 01:43:13;;;;;;;;;;;4.00;99.90;;;;;;5093812;28;19939;-74
2021/12/28 01:45:44;;;;;;;;;;;3.90;99.90;;;;;;5093634;28;19953;-74
2021/12/28 01:48:12;;;;;;;;;;;4.00;99.90;;;;;;5094121;28;19915;-74
2021/12/28 01:50:38;;;;;;;;;;;3.90;99.90;;;;;;5093664;28;20411;-74
2021/12/28 01:53:04;;;;;;;;;;;3.70;99.90;;;;;;5093093;28;19916;-74
2021/12/28 01:55:30;;;;;;;;;;;3.60;99.90;;;;;;5094454;28;19915;-74
2021/12/28 01:57:55;;;;;;;;;;;3.50;99.90;;;;;;5093711;28;19908;-74
2021/12/28 02:00:22;;;;;;;;;;;3.60;99.90;;;;;;5093409;28;19923;-74
2021/12/28 02:02:48;;;;;;;;;;;3.50;99.90;;;;;;5093463;28;20456;-74
2021/12/28 02:05:14;;;;;;;;;;;3.50;99.90;;;;;;5092945;28;19948;-74
2021/12/28 02:07:39;;;;;;;;;;;3.40;99.90;;;;;;5091269;28;19908;-74
2021/12/28 02:10:05;;;;;;;;;;;3.30;99.90;;;;;;5093011;28;19966;-74
2021/12/28 02:12:31;;;;;;;;;;;3.40;99.90;;;;;;5093775;28;19912;-74
2021/12/28 02:14:57;;;;;;;;;;;3.30;99.90;;;;;;5092601;28;19955;-74
2021/12/28 02:17:23;;;;;;;;;;;3.30;99.90;;;;;;5093236;28;19908;-74
2021/12/28 02:19:48;;;;;;;;;;;3.40;99.90;;;;;;5093102;28;19954;-74
2021/12/28 02:22:14;;;;;;;;;;;3.50;99.90;;;;;;5093121;28;19916;-74
2021/12/28 02:24:39;;;;;;;;;;;3.50;99.90;;;;;;5092586;28;19908;-74
2021/12/28 02:27:05;;;;;;;;;;;3.50;99.90;;;;;;5093043;28;19915;-74
2021/12/28 02:29:30;;;;;;;;;;;3.40;99.90;;;;;;5092859;28;19920;-74
2021/12/28 02:31:56;;;;;;;;;;;3.30;99.90;;;;;;5092806;28;19908;-74
2021/12/28 02:34:25;;;;;;;;;;;3.30;99.90;;;;;;5092685;28;19908;-74
2021/12/28 02:36:51;;;;;;;;;;;3.20;99.90;;;;;;5092301;28;19908;-74
2021/12/28 02:39:16;;;;;;;;;;;3.20;99.90;;;;;;5074527;28;19932;-74
2021/12/28 02:41:42;;;;;;;;;;;3.20;99.90;;;;;;5088283;28;20582;-74
2021/12/28 02:44:07;;;;;;;;;;;3.30;99.90;;;;;;5092124;28;19912;-74
2021/12/28 02:46:33;;;;;;;;;;;3.20;99.90;;;;;;5092510;28;19915;-74
2021/12/28 02:48:59;;;;;;;;;;;3.20;99.90;;;;;;5091837;28;19908;-74
2021/12/28 02:51:24;;;;;;;;;;;3.20;99.90;;;;;;5092040;28;19951;-74
2021/12/28 02:53:50;;;;;;;;;;;3.40;99.90;;;;;;5091890;28;20238;-74
2021/12/28 02:56:16;;;;;;;;;;;3.40;99.90;;;;;;5092269;28;19908;-74
2021/12/28 02:58:43;;;;;;;;;;;3.40;99.90;;;;;;5092392;28;19912;-74
2021/12/28 03:01:12;;;;;;;;;;;3.40;99.90;;;;;;5074119;28;19908;-74
2021/12/28 03:03:38;;;;;;;;;;;3.50;99.90;;;;;;5073812;28;19952;-74
2021/12/28 03:06:06;;;;;;;;;;;3.50;99.90;;;;;;5091995;28;19908;-74
2021/12/28 03:08:32;;;;;;;;;;;3.40;99.90;;;;;;5092320;28;19951;-74
2021/12/28 03:10:58;;;;;;;;;;;3.30;99.90;;;;;;5091879;28;19912;-75
2021/12/28 03:13:25;;;;;;;;;;;3.30;99.90;;;;;;5091626;28;19916;-75
2021/12/28 03:15:51;;;;;;;;;;;3.40;99.90;;;;;;5091988;28;20467;-74
2021/12/28 03:18:17;;;;;;;;;;;3.50;99.90;;;;;;5092039;28;19934;-74
2021/12/28 03:20:43;;;;;;;;;;;3.50;99.90;;;;;;5087835;28;19969;-74
2021/12/28 03:23:09;;;;;;;;;;;3.50;99.90;;;;;;5088319;28;19912;-74
2021/12/28 03:25:35;;;;;;;;;;;3.60;99.90;;;;;;5091890;28;19961;-74
2021/12/28 03:28:01;;;;;;;;;;;3.70;99.90;;;;;;5074261;28;20345;-74
2021/12/28 03:30:27;;;;;;;;;;;3.80;99.90;;;;;;5091967;28;19973;-75
2021/12/28 03:32:53;;;;;;;;;;;3.80;99.90;;;;;;5091589;28;20360;-74
2021/12/28 03:35:19;;;;;;;;;;;3.80;99.90;;;;;;5091381;28;19913;-74
2021/12/28 03:37:44;;;;;;;;;;;3.80;99.90;;;;;;5091653;28;19919;-74
2021/12/28 03:40:11;;;;;;;;;;;3.80;99.90;;;;;;5091503;28;19912;-74
2021/12/28 03:42:37;;;;;;;;;;;4.00;99.90;;;;;;5091471;28;20015;-75
2021/12/28 03:45:04;;;;;;;;;;;4.30;99.90;;;;;;5090710;28;20010;-74
2021/12/28 03:47:29;;;;;;;;;;;4.50;99.90;;;;;;5091526;28;19908;-75
2021/12/28 03:49:55;;;;;;;;;;;4.60;99.90;;;;;;5091254;28;19916;-74
2021/12/28 03:52:20;;;;;;;;;;;4.80;99.90;;;;;;5073057;28;19912;-74
2021/12/28 03:54:46;;;;;;;;;;;4.90;99.90;;;;;;5090935;28;20279;-74
2021/12/28 03:57:11;;;;;;;;;;;5.00;99.90;;;;;;5091429;28;20232;-74
2021/12/28 03:59:38;;;;;;;;;;;5.20;99.90;;;;;;5091668;28;19957;-74
2021/12/28 04:02:04;;;;;;;;;;;5.20;99.90;;;;;;5091684;28;20268;-74
2021/12/28 04:04:29;;;;;;;;;;;5.40;99.90;;;;;;5091172;28;19915;-75
2021/12/28 04:06:55;;;;;;;;;;;5.20;99.90;;;;;;5091871;28;20348;-74
2021/12/28 04:09:44;;;;;;;;;;;5.20;99.90;;;;;;5084593;28;20384;-74
2021/12/28 04:12:06;;;;;;;;;;;5.20;99.90;;;;;;5091219;28;19908;-74
2021/12/28 04:14:31;;;;;;;;;;;5.50;99.90;;;;;;5090798;28;19999;-74
2021/12/28 04:16:57;;;;;;;;;;;5.30;99.90;;;;;;5091419;28;19913;-74
2021/12/28 04:19:22;;;;;;;;;;;5.30;99.90;;;;;;5072926;28;20376;-74
2021/12/28 04:21:48;;;;;;;;;;;5.30;99.90;;;;;;5090823;28;19914;-74
2021/12/28 04:24:13;;;;;;;;;;;5.40;99.90;;;;;;5090989;28;19965;-74
2021/12/28 04:26:39;;;;;;;;;;;5.50;99.90;;;;;;5091299;28;19908;-73
2021/12/28 04:29:04;;;;;;;;;;;5.50;99.90;;;;;;5091135;28;19936;-74
2021/12/28 04:31:30;;;;;;;;;;;5.50;99.90;;;;;;5091335;28;19908;-74
2021/12/28 04:33:56;;;;;;;;;;;5.70;99.90;;;;;;5090539;28;19912;-74
2021/12/28 04:36:22;;;;;;;;;;;5.70;99.90;;;;;;5091127;28;20368;-75
2021/12/28 04:38:48;;;;;;;;;;;5.70;99.90;;;;;;5091035;28;19908;-74
2021/12/28 04:41:14;;;;;;;;;;;5.70;99.90;;;;;;5073171;28;19916;-74
2021/12/28 04:43:39;;;;;;;;;;;5.70;99.90;;;;;;5090493;28;19916;-74
2021/12/28 04:46:05;;;;;;;;;;;5.80;99.90;;;;;;5090994;28;19909;-74
2021/12/28 04:48:32;;;;;;;;;;;5.70;99.90;;;;;;5090794;28;20003;-75
2021/12/28 04:50:57;;;;;;;;;;;5.80;99.90;;;;;;5090495;28;19912;-74
2021/12/28 04:53:23;;;;;;;;;;;5.80;99.90;;;;;;5090299;28;19912;-74
2021/12/28 04:55:50;;;;;;;;;;;5.60;99.90;;;;;;5090768;28;19908;-74
2021/12/28 04:58:16;;;;;;;;;;;5.60;99.90;;;;;;5092968;28;20358;-74
2021/12/28 05:00:42;;;;;;;;;;;5.50;99.90;;;;;;5094749;28;19951;-75
2021/12/28 05:03:08;;;;;;;;;;;5.60;99.90;;;;;;5094093;28;20010;-74
2021/12/28 05:05:33;;;;;;;;;;;5.50;99.90;;;;;;5076141;28;19955;-74
2021/12/28 05:07:59;;;;;;;;;;;5.40;99.90;;;;;;5094627;28;20341;-74
2021/12/28 05:10:24;;;;;;;;;;;5.40;99.90;;;;;;5094436;28;20364;-74
2021/12/28 05:12:50;;;;;;;;;;;5.50;99.90;;;;;;5094384;28;19964;-74
2021/12/28 05:15:17;;;;;;;;;;;5.50;99.90;;;;;;5093838;28;20273;-75
2021/12/28 05:17:42;;;;;;;;;;;5.50;99.90;;;;;;5094406;28;19908;-74
2021/12/28 05:20:08;;;;;;;;;;;5.60;99.90;;;;;;5091199;28;19916;-75
2021/12/28 05:22:34;;;;;;;;;;;5.70;99.90;;;;;;5093876;28;19908;-74
2021/12/28 05:24:59;;;;;;;;;;;5.60;99.90;;;;;;5094001;28;20031;-75
2021/12/28 05:27:25;;;;;;;;;;;5.70;99.90;;;;;;5094168;28;19938;-74
2021/12/28 05:29:50;;;;;;;;;;;5.70;99.90;;;;;;5075804;28;20379;-74
2021/12/28 05:32:16;;;;;;;;;;;5.90;99.90;;;;;;5094003;28;19912;-75
2021/12/28 05:34:42;;;;;;;;;;;5.80;99.90;;;;;;5093354;28;19951;-74
2021/12/28 05:37:07;;;;;;;;;;;5.80;99.90;;;;;;5094285;28;19912;-74
2021/12/28 05:39:33;;;;;;;;;;;5.90;99.90;;;;;;5075836;28;20273;-74
2021/12/28 05:41:58;;;;;;;;;;;5.90;99.90;;;;;;5093853;28;20349;-75
2021/12/28 05:44:24;;;;;;;;;;;5.80;99.90;;;;;;5093488;28;19912;-75
2021/12/28 05:46:50;;;;;;;;;;;5.80;99.90;;;;;;5093799;28;19908;-75
2021/12/28 05:49:16;;;;;;;;;;;5.80;99.90;;;;;;5092988;28;19998;-75
2021/12/28 05:51:41;;;;;;;;;;;5.90;99.90;;;;;;5089692;28;19966;-74
2021/12/28 05:54:07;;;;;;;;;;;5.90;99.90;;;;;;5093232;28;19916;-75
2021/12/28 05:56:32;;;;;;;;;;;5.80;99.90;;;;;;5093645;28;19908;-75
2021/12/28 05:58:58;;;;;;;;;;;5.80;99.90;;;;;;5093601;28;19908;-75
2021/12/28 06:01:23;;;;;;;;;;;5.90;99.90;;;;;;5093439;28;19908;-74
2021/12/28 06:03:49;;;;;;;;;;;6.00;99.90;;;;;;5092946;28;19969;-75
2021/12/28 06:06:14;;;;;;;;;;;6.20;99.90;;;;;;5093312;28;19916;-75
2021/12/28 06:08:40;;;;;;;;;;;6.10;99.90;;;;;;5093076;28;20446;-75
2021/12/28 06:11:07;;;;;;;;;;;6.30;99.90;;;;;;5093203;28;19914;-75
2021/12/28 06:13:32;;;;;;;;;;;6.20;99.90;;;;;;5093151;28;19912;-74
2021/12/28 06:15:58;;;;;;;;;;;6.40;99.90;;;;;;5067433;28;19916;-75
2021/12/28 06:18:24;;;;;;;;;;;6.30;99.90;;;;;;5093019;28;19908;-75
2021/12/28 06:20:49;;;;;;;;;;;6.20;99.90;;;;;;5093158;28;20262;-74
2021/12/28 06:23:16;;;;;;;;;;;6.40;99.90;;;;;;5074591;28;19915;-75
2021/12/28 06:25:41;;;;;;;;;;;6.50;99.90;;;;;;5093256;28;19912;-75
2021/12/28 06:28:07;;;;;;;;;;;6.30;99.90;;;;;;5093205;28;19912;-74
2021/12/28 06:30:33;;;;;;;;;;;6.40;99.90;;;;;;5093046;28;20284;-74
2021/12/28 06:32:59;;;;;;;;;;;6.40;99.90;;;;;;5092272;28;20778;-74
2021/12/28 06:35:24;;;;;;;;;;;6.60;99.90;;;;;;5093437;28;19908;-74
2021/12/28 06:37:50;;;;;;;;;;;6.70;99.90;;;;;;5092999;28;19908;-74
2021/12/28 06:40:15;;;;;;;;;;;6.60;99.90;;;;;;5092958;28;19911;-74
2021/12/28 06:42:41;;;;;;;;;;;6.70;99.90;;;;;;5092613;28;20275;-74
2021/12/28 06:45:07;;;;;;;;;;;6.50;99.90;;;;;;5092269;28;19916;-74
2021/12/28 06:47:32;;;;;;;;;;;6.70;99.90;;;;;;5092088;28;19908;-74
2021/12/28 06:49:58;;;;;;;;;;;6.50;99.90;;;;;;5092663;28;19984;-74
2021/12/28 06:52:23;;;;;;;;;;;6.50;99.90;;;;;;5092415;28;19912;-74
2021/12/28 06:54:49;;;;;;;;;;;6.70;99.90;;;;;;5092199;28;20313;-74
2021/12/28 06:57:14;;;;;;;;;;;6.70;99.90;;;;;;5092484;28;19915;-74
2021/12/28 06:59:45;;;;;;;;;;;6.70;99.90;;;;;;5092525;28;19908;-74
2021/12/28 07:02:11;;;;;;;;;;;6.70;99.90;;;;;;5092129;28;20006;-75
2021/12/28 07:04:37;;;;;;;;;;;6.80;99.90;;;;;;5091889;28;19908;-75
2021/12/28 07:07:03;;;;;;;;;;;6.90;99.90;;;;;;5092247;28;19915;-74
2021/12/28 07:09:28;;;;;;;;;;;6.90;99.90;;;;;;5092221;28;19908;-75
2021/12/28 07:11:54;;;;;;;;;;;6.80;99.90;;;;;;5092263;28;19909;-74
2021/12/28 07:14:20;;;;;;;;;;;6.70;99.90;;;;;;5091362;28;19923;-74
2021/12/28 07:16:45;;;;;;;;;;;6.80;99.90;;;;;;5073215;28;19908;-73
2021/12/28 07:19:11;;;;;;;;;;;6.70;99.90;;;;;;5085313;28;19915;-75
2021/12/28 07:21:38;;;;;;;;;;;6.90;99.90;;;;;;5091083;28;19908;-74
2021/12/28 07:24:04;;;;;;;;;;;6.80;99.90;;;;;;5091387;28;20157;-74
2021/12/28 07:26:30;;;;;;;;;;;6.60;99.90;;;;;;5091807;28;19995;-75
2021/12/28 07:28:55;;;;;;;;;;;6.60;99.90;;;;;;5091776;28;19947;-74
2021/12/28 07:31:20;;;;;;;;;;;6.70;99.90;;;;;;5091539;28;19931;-74
2021/12/28 07:33:46;;;;;;;;;;;6.70;99.90;;;;;;5091060;28;19912;-74
2021/12/28 07:36:11;;;;;;;;;;;6.80;99.90;;;;;;5091790;28;19915;-73
2021/12/28 07:38:37;;;;;;;;;;;6.70;99.90;;;;;;5091268;28;20063;-74
2021/12/28 07:41:03;;;;;;;;;;;6.60;99.90;;;;;;5091740;28;19908;-75
2021/12/28 07:43:28;;;;;;;;;;;6.50;99.90;;;;;;5090928;28;20353;-75
2021/12/28 07:45:54;;;;;;;;;;;6.50;99.90;;;;;;5085591;28;19912;-75
2021/12/28 07:48:20;;;;;;;;;;;6.70;99.90;;;;;;5091277;28;20077;-75
2021/12/28 07:50:45;;;;;;;;;;;6.90;99.90;;;;;;5091527;28;19908;-75
2021/12/28 07:53:11;;;;;;;;;;;7.00;99.90;;;;;;5090893;28;19966;-75
2021/12/28 07:55:36;;;;;;;;;;;7.10;99.90;;;;;;5091190;28;19908;-74
2021/12/28 07:58:02;;;;;;;;;;;7.10;99.90;;;;;;5091410;28;19915;-75
2021/12/28 08:00:28;;;;;;;;;;;7.30;99.90;;;;;;5091575;28;20023;-74
2021/12/28 08:02:56;;;;;;;;;;;7.20;99.90;;;;;;5072641;28;19913;-75
2021/12/28 08:05:22;;;;;;;;;;;7.10;99.90;;;;;;5091012;28;19912;-74
2021/12/28 08:07:47;;;;;;;;;;;7.20;99.90;;;;;;5091133;28;19912;-75
2021/12/28 08:10:14;;;;;;;;;;;7.20;99.90;;;;;;5091282;28;19908;-74
2021/12/28 08:12:40;;;;;;;;;;;7.30;99.90;;;;;;5091122;28;20283;-75
2021/12/28 08:15:06;;;;;;;;;;;7.50;99.90;;;;;;5090278;28;20344;-75
2021/12/28 08:17:31;;;;;;;;;;;7.40;99.90;;;;;;5090952;28;19959;-75
2021/12/28 08:19:57;;;;;;;;;;;7.40;99.90;;;;;;5091025;28;19999;-74
2021/12/28 08:22:23;;;;;;;;;;;7.40;99.90;;;;;;5091225;28;19908;-73
2021/12/28 08:24:48;;;;;;;;;;;7.50;99.90;;;;;;5090447;28;20373;-75
2021/12/28 08:27:14;;;;;;;;;;;7.40;99.90;;;;;;5091001;28;19908;-74
2021/12/28 08:29:39;;;;;;;;;;;7.40;99.90;;;;;;5090639;28;20280;-74
2021/12/28 08:32:05;;;;;;;;;;;7.30;99.90;;;;;;5092738;28;19916;-75
2021/12/28 08:34:30;;;;;;;;;;;7.30;99.90;;;;;;5094582;28;19930;-74
2021/12/28 08:36:56;;;;;;;;;;;7.40;99.90;;;;;;5095183;28;20356;-75
2021/12/28 08:39:21;;;;;;;;;;;7.40;99.90;;;;;;5095391;28;19910;-74
2021/12/28 08:41:47;;;;;;;;;;;7.40;99.90;;;;;;5094984;28;20473;-74
2021/12/28 08:44:12;;;;;;;;;;;7.50;99.90;;;;;;5091845;28;19908;-74
2021/12/28 08:46:39;;;;;;;;;;;7.50;99.90;;;;;;5093906;28;20044;-74
2021/12/28 08:49:05;;;;;;;;;;;7.60;99.90;;;;;;5094934;28;20356;-74
2021/12/28 08:51:31;;;;;;;;;;;7.70;99.90;;;;;;5094773;28;19916;-75
2021/12/28 08:53:57;;;;;;;;;;;7.60;99.90;;;;;;5094341;28;19962;-74
2021/12/28 08:56:23;;;;;;;;;;;7.70;99.90;;;;;;5094792;28;20308;-74
2021/12/28 08:58:50;;;;;;;;;;;7.70;99.90;;;;;;5094607;28;20304;-75
2021/12/28 09:01:16;;;;;;;;;;;7.80;99.90;;;;;;5094619;28;19912;-74
2021/12/28 09:03:41;;;;;;;;;;;8.00;99.90;;;;;;5094177;28;19908;-74
2021/12/28 09:06:07;;;;;;;;;;;8.00;99.90;;;;;;5094599;28;20366;-74
2021/12/28 09:08:33;;;;;;;;;;;7.80;99.90;;;;;;5095957;28;19908;-74
2021/12/28 09:10:58;;;;;;;;;;;7.80;99.90;;;;;;5076294;28;19915;-74
2021/12/28 09:13:24;;;;;;;;;;;7.80;99.90;;;;;;5094180;28;19912;-74
2021/12/28 09:15:49;;;;;;;;;;;7.80;99.90;;;;;;5093922;28;19923;-75
2021/12/28 09:18:15;;;;;;;;;;;8.00;99.90;;;;;;5094235;28;20361;-75
2021/12/28 09:20:40;;;;;;;;;;;8.90;99.90;;;;;;5096027;28;19908;-73
2021/12/28 09:23:07;;;;;;;;;;;9.70;99.90;;;;;;5096460;28;19959;-74
2021/12/28 09:25:32;;;;;;;;;;;10.10;99.90;;;;;;5095914;28;19915;-74
2021/12/28 09:27:58;;;;;;;;;;;9.10;99.90;;;;;;5094281;28;19912;-74
2021/12/28 09:30:23;;;;;;;;;;;8.50;99.90;;;;;;5094350;28;19949;-74
2021/12/28 09:32:49;;;;;;;;;;;8.70;99.90;;;;;;5093976;28;20261;-74
2021/12/28 09:35:14;;;;;;;;;;;8.90;99.90;;;;;;5094673;28;19908;-75
2021/12/28 09:37:40;;;;;;;;;;;8.80;99.90;;;;;;5094367;28;20393;-75
2021/12/28 09:40:08;;;;;;;;;;;8.60;99.90;;;;;;5094849;28;19915;-74
2021/12/28 09:42:34;;;;;;;;;;;8.40;99.90;;;;;;5093957;28;20429;-74
2021/12/28 09:44:59;;;;;;;;;;;8.40;99.90;;;;;;5092964;28;19912;-74
2021/12/28 09:47:25;;;;;;;;;;;8.90;99.90;;;;;;5094088;28;19998;-74
2021/12/28 09:49:50;;;;;;;;;;;9.30;99.90;;;;;;5094183;28;20002;-75
2021/12/28 09:52:17;;;;;;;;;;;9.40;99.90;;;;;;5093757;28;20033;-75
2021/12/28 09:54:42;;;;;;;;;;;10.30;99.90;;;;;;5093499;28;20021;-75
2021/12/28 09:57:08;;;;;;;;;;;10.70;99.90;;;;;;5093632;28;19951;-74
2021/12/28 09:59:34;;;;;;;;;;;9.90;99.90;;;;;;5087309;28;20030;-75
2021/12/28 10:02:02;;;;;;;;;;;9.50;99.90;;;;;;5093653;28;20288;-75
2021/12/28 10:04:27;;;;;;;;;;;9.70;99.90;;;;;;5093246;28;19954;-74
2021/12/28 10:07:13;;;;;;;;;;;10.10;99.90;;;;;;5093844;28;19951;-75
2021/12/28 10:09:38;;;;;;;;;;;10.10;99.90;;;;;;5093521;28;19909;-75
2021/12/28 10:12:04;;;;;;;;;;;10.70;99.90;;;;;;5075061;28;19909;-74
2021/12/28 10:14:29;;;;;;;;;;;10.60;99.90;;;;;;5089662;28;19916;-74
2021/12/28 10:16:58;;;;;;;;;;;10.30;99.90;;;;;;5092837;28;19998;-75
2021/12/28 10:19:32;;;;;;;;;;;10.10;99.90;;;;;;5093430;28;19909;-75
2021/12/28 10:21:58;;;;;;;;;;;10.00;99.90;;;;;;5093473;28;20315;-74
2021/12/28 10:24:30;;;;;;;;;;;10.00;99.90;;;;;;5092640;28;19995;-75
2021/12/28 10:27:09;;;;;;;;;;;10.20;99.90;;;;;;5093228;28;19912;-74
2021/12/28 10:29:34;;;;;;;;;;;10.20;99.90;;;;;;5093003;28;19908;-75
2021/12/28 10:32:17;;;;;;;;;;;10.10;99.90;;;;;;5093261;28;20005;-75
2021/12/28 10:34:46;;;;;;;;;;;10.20;99.90;;;;;;5092203;28;20447;-74
2021/12/28 10:37:19;;;;;;;;;;;10.20;99.90;;;;;;5092868;28;20280;-75
2021/12/28 10:39:45;;;;;;;;;;;10.20;99.90;;;;;;5092756;28;19908;-75
2021/12/28 10:42:31;;;;;;;;;;;10.00;99.90;;;;;;5092824;28;19959;-75
2021/12/28 10:44:57;;;;;;;;;;;10.00;99.90;;;;;;5086288;28;20373;-74
2021/12/28 10:47:24;;;;;;;;;;;10.00;99.90;;;;;;5092260;28;19919;-75
2021/12/28 10:49:49;;;;;;;;;;;10.40;99.90;;;;;;5092548;28;19908;-75
2021/12/28 10:52:24;;;;;;;;;;;10.40;99.90;;;;;;5092539;28;19908;-75
2021/12/28 10:54:49;;;;;;;;;;;10.40;99.90;;;;;;5091085;28;19962;-75
2021/12/28 10:57:15;;;;;;;;;;;10.40;99.90;;;;;;5092316;28;19908;-75
2021/12/28 10:59:40;;;;;;;;;;;10.50;99.90;;;;;;5092300;28;19908;-75
2021/12/28 11:02:06;;;;;;;;;;;10.40;99.90;;;;;;5092482;28;19920;-75
2021/12/28 11:04:33;;;;;;;;;;;10.40;99.90;;;;;;5091872;28;19998;-75
2021/12/28 11:06:59;;;;;;;;;;;10.50;99.90;;;;;;5092569;28;20189;-75
2021/12/28 11:09:25;;;;;;;;;;;10.50;99.90;;;;;;5074147;28;20009;-75
2021/12/28 11:11:55;;;;;;;;;;;10.20;99.90;;;;;;5092833;28;19958;-74
2021/12/28 11:14:22;;;;;;;;;;;10.20;99.90;;;;;;5091760;28;19920;-75
2021/12/28 11:16:49;;;;;;;;;;;10.20;99.90;;;;;;5091786;28;19909;-75
2021/12/28 11:19:21;;;;;;;;;;;10.30;99.90;;;;;;5091809;28;19973;-75
2021/12/28 11:21:51;;;;;;;;;;;10.20;99.90;;;;;;5092278;28;20252;-75
2021/12/28 11:24:17;;;;;;;;;;;10.10;99.90;;;;;;5091472;28;19999;-75
2021/12/28 11:26:44;;;;;;;;;;;10.10;99.90;;;;;;5073740;28;19947;-75
2021/12/28 11:29:11;;;;;;;;;;;10.20;99.90;;;;;;5091816;28;19965;-75
2021/12/28 11:31:42;;;;;;;;;;;10.10;99.90;;;;;;5073833;28;20364;-75
2021/12/28 11:34:12;;;;;;;;;;;10.10;99.90;;;;;;5091216;28;19916;-75
2021/12/28 11:36:43;;;;;;;;;;;10.20;99.90;;;;;;5091886;28;20395;-75
2021/12/28 11:39:10;;;;;;;;;;;10.10;99.90;;;;;;5091564;28;20015;-75
2021/12/28 11:41:36;;;;;;;;;;;10.10;99.90;;;;;;5091620;28;19920;-74
2021/12/28 11:44:02;;;;;;;;;;;10.20;99.90;;;;;;5091083;28;19908;-73
2021/12/28 11:46:28;;;;;;;;;;;10.20;99.90;;;;;;5091203;28;19912;-75
2021/12/28 11:48:53;;;;;;;;;;;10.10;99.90;;;;;;5091591;28;20550;-75
2021/12/28 11:51:20;;;;;;;;;;;10.10;99.90;;;;;;5091355;28;19916;-75
2021/12/28 11:53:46;;;;;;;;;;;10.00;99.90;;;;;;5072778;28;19919;-75
2021/12/28 11:56:13;;;;;;;;;;;9.90;99.90;;;;;;5088961;28;19919;-74
2021/12/28 11:58:52;;;;;;;;;;;9.80;99.90;;;;;;5091532;28;20287;-75
2021/12/28 12:01:54;;;;;;;;;;;9.80;99.90;;;;;;5091928;28;20192;-74
2021/12/28 12:04:34;;;;;;;;;;;9.90;99.90;;;;;;5009534;28;20005;-73
2021/12/28 12:07:05;;;;;;;;;;;9.90;99.90;;;;;;5058725;28;19954;-74
2021/12/28 12:09:34;;;;;;;;;;;9.80;99.90;;;;;;5092029;28;19908;-73
2021/12/28 12:12:20;;;;;;;;;;;9.80;99.90;;;;;;5091449;28;20360;-73
2021/12/28 12:15:03;;;;;;;;;;;9.80;99.90;;;;;;5076261;28;19923;-74
2021/12/28 12:17:28;;;;;;;;;;;9.80;99.90;;;;;;5091378;28;19918;-72
2021/12/28 12:19:55;;;;;;;;;;;9.90;99.90;;;;;;5091119;28;19908;-74
2021/12/28 12:22:29;;;;;;;;;;;10.10;99.90;;;;;;5091508;28;19919;-73
2021/12/28 12:24:55;;;;;;;;;;;10.20;99.90;;;;;;5091240;28;20326;-73
2021/12/28 12:27:39;;;;;;;;;;;10.30;99.90;;;;;;5091276;28;19934;-73
2021/12/28 12:30:28;;;;;;;;;;;10.40;99.90;;;;;;5091521;28;19990;-73
2021/12/28 12:33:05;;;;;;;;;;;10.40;99.90;;;;;;5091266;28;19912;-73
2021/12/28 12:35:30;;;;;;;;;;;10.40;99.90;;;;;;5091447;28;20389;-74
2021/12/28 12:37:56;;;;;;;;;;;10.40;99.90;;;;;;5091439;28;19948;-73
2021/12/28 12:40:22;;;;;;;;;;;10.40;99.90;;;;;;5091242;28;19908;-73
2021/12/28 12:43:20;;;;;;;;;;;10.40;99.90;;;;;;5091137;28;19923;-73
2021/12/28 12:45:52;;;;;;;;;;;10.50;99.90;;;;;;5045445;28;19908;-76
2021/12/28 12:48:52;;;;;;;;;;;10.40;99.90;;;;;;5090837;28;20387;-73
2021/12/28 12:51:17;;;;;;;;;;;10.40;99.90;;;;;;5090753;28;19912;-74
2021/12/28 12:53:48;;;;;;;;;;;10.30;99.90;;;;;;5090351;28;19912;-75
2021/12/28 12:56:18;;;;;;;;;;;10.30;99.90;;;;;;5090728;28;20356;-73
2021/12/28 12:58:47;;;;;;;;;;;10.30;99.90;;;;;;5091262;28;20341;-74
2021/12/28 13:01:24;;;;;;;;;;;10.20;99.90;;;;;;5090544;28;19915;-74
2021/12/28 13:03:50;;;;;;;;;;;10.20;99.90;;;;;;5090595;28;19952;-74
2021/12/28 13:06:39;;;;;;;;;;;10.20;99.90;;;;;;5072616;28;19999;-74
2021/12/28 13:09:05;;;;;;;;;;;10.20;99.90;;;;;;5081893;28;20297;-74
2021/12/28 13:11:31;;;;;;;;;;;10.10;99.90;;;;;;5090671;28;19916;-74
2021/12/28 13:13:57;;;;;;;;;;;10.00;99.90;;;;;;5089765;28;19912;-74
2021/12/28 13:16:22;;;;;;;;;;;10.10;99.90;;;;;;5087222;28;19912;-75
2021/12/28 13:18:48;;;;;;;;;;;10.10;99.90;;;;;;5090010;28;20429;-72
2021/12/28 13:21:20;;;;;;;;;;;10.10;99.90;;;;;;5094406;28;19912;-75
2021/12/28 13:24:07;;;;;;;;;;;10.10;99.90;;;;;;5093604;28;20277;-75
2021/12/28 13:26:42;;;;;;;;;;;10.10;99.90;;;;;;5076179;28;19954;-75
2021/12/28 13:29:07;;;;;;;;;;;10.10;99.90;;;;;;5094247;28;19912;-75
2021/12/28 13:31:33;;;;;;;;;;;10.00;99.90;;;;;;5075953;28;19962;-75
2021/12/28 13:34:00;;;;;;;;;;;10.00;99.90;;;;;;5093295;28;20332;-75
2021/12/28 13:36:27;;;;;;;;;;;9.90;99.90;;;;;;5094174;28;19995;-75
2021/12/28 13:39:08;;;;;;;;;;;9.90;99.90;;;;;;5087554;28;20334;-75
2021/12/28 13:41:34;;;;;;;;;;;9.90;99.90;;;;;;5089432;28;19915;-75
2021/12/28 13:44:04;;;;;;;;;;;9.80;99.90;;;;;;5093332;28;20343;-76
2021/12/28 13:46:30;;;;;;;;;;;9.70;99.90;;;;;;5093364;28;19961;-75
2021/12/28 13:48:57;;;;;;;;;;;9.60;99.90;;;;;;5093385;28;19912;-75
2021/12/28 13:51:23;;;;;;;;;;;9.60;99.90;;;;;;5093683;28;19947;-75
2021/12/28 13:53:50;;;;;;;;;;;9.50;99.90;;;;;;5092029;28;20391;-75
2021/12/28 13:56:21;;;;;;;;;;;9.40;99.90;;;;;;5093340;28;19908;-75
2021/12/28 13:58:48;;;;;;;;;;;9.40;99.90;;;;;;5074989;28;19944;-75
2021/12/28 14:01:16;;;;;;;;;;;9.30;99.90;;;;;;5093421;28;19912;-73
2021/12/28 14:03:42;;;;;;;;;;;9.20;99.90;;;;;;5093007;28;19914;-74
2021/12/28 14:06:08;;;;;;;;;;;9.20;99.90;;;;;;5093445;28;19972;-75
2021/12/28 14:08:37;;;;;;;;;;;9.10;99.90;;;;;;5093470;28;19908;-75
2021/12/28 14:11:03;;;;;;;;;;;9.10;99.90;;;;;;5093627;28;20329;-75
2021/12/28 14:13:33;;;;;;;;;;;9.10;99.90;;;;;;5092603;28;19998;-75
2021/12/28 14:16:01;;;;;;;;;;;9.20;99.90;;;;;;5093493;28;19916;-75
2021/12/28 14:18:28;;;;;;;;;;;9.20;99.90;;;;;;5074998;28;20420;-75
2021/12/28 14:20:54;;;;;;;;;;;9.20;99.90;;;;;;5093135;28;20393;-74
2021/12/28 14:23:26;;;;;;;;;;;9.10;99.90;;;;;;5092759;28;19912;-74
2021/12/28 14:26:02;;;;;;;;;;;9.20;99.90;;;;;;5090116;28;19951;-74